Time;durP1;ratioP1;P1;durP2;ratioP2;P2;SDS_P1;SDS_P2;PMS_P1;PMS_P2;Temp;Humidity;BMP_temperature;BMP_pressure;BME280_temperature;BME280_humidity;BME280_pressure;Samples;Min_cycle;Max_cycle;Signal;HPM_P1;HPM_P2
2023/03/29 00:02:12;;;;;;;9.43;4.50;;;-1.90;99.90;;;;;;4957210;28;20209;-82
2023/03/29 00:04:40;;;;;;;9.63;4.60;;;-1.80;99.90;;;;;;4957491;28;20193;-78
2023/03/29 00:07:07;;;;;;;8.57;4.40;;;-1.80;99.90;;;;;;4974612;28;20563;-79
2023/03/29 00:09:34;;;;;;;9.17;4.43;;;-1.90;99.90;;;;;;4957118;28;20207;-78
2023/03/29 00:12:01;;;;;;;10.87;4.20;;;-1.90;99.90;;;;;;4957401;28;20221;-78
2023/03/29 00:14:29;;;;;;;10.30;4.73;;;-1.90;99.90;;;;;;4956111;28;20230;-73
2023/03/29 00:17:29;;;;;;;9.90;4.37;;;-2.00;99.90;;;;;;5112648;23;20273;-74
2023/03/29 00:19:56;;;;;;;8.03;4.27;;;-1.90;99.90;;;;;;4954278;29;20223;-79
2023/03/29 00:22:25;;;;;;;9.37;4.43;;;-2.00;99.90;;;;;;4937377;29;20600;-79
2023/03/29 00:24:52;;;;;;;9.47;4.27;;;-1.90;99.90;;;;;;4941585;28;20198;-78
2023/03/29 00:27:20;;;;;;;8.03;4.47;;;-1.90;99.90;;;;;;4943932;29;20208;-82
2023/03/29 00:29:49;;;;;;;8.37;4.27;;;-2.00;99.90;;;;;;4940072;29;20205;-79
2023/03/29 00:32:16;;;;;;;9.63;4.50;;;-2.00;99.90;;;;;;4953465;29;20203;-79
2023/03/29 00:34:44;;;;;;;8.53;4.13;;;-2.00;99.90;;;;;;4924556;28;20204;-79
2023/03/29 00:37:13;;;;;;;9.07;4.83;;;-2.10;99.90;;;;;;4905659;29;20222;-80
2023/03/29 00:39:41;;;;;;;8.10;4.60;;;-2.10;99.90;;;;;;4937068;29;20215;-77
2023/03/29 00:42:12;;;;;;;9.03;4.47;;;-2.20;99.90;;;;;;4935922;29;20255;-79
2023/03/29 00:45:10;;;;;;;11.80;5.00;;;-2.20;99.90;;;;;;4936618;29;20214;-76
2023/03/29 00:48:01;;;;;;;8.27;4.40;;;-2.20;99.90;;;;;;4954036;29;20661;-81
2023/03/29 00:50:35;;;;;;;9.67;4.37;;;-2.20;99.90;;;;;;4941117;28;20653;-77
2023/03/29 00:53:38;;;;;;;10.10;4.60;;;-2.10;99.90;;;;;;4946230;29;20573;-76
2023/03/29 00:56:06;;;;;;;8.67;4.50;;;-2.20;99.90;;;;;;4939274;29;20186;-77
2023/03/29 00:58:42;;;;;;;11.30;4.73;;;-2.20;99.90;;;;;;4937801;29;20230;-77
2023/03/29 01:01:18;;;;;;;9.00;4.50;;;-2.20;99.90;;;;;;4954943;29;20191;-78
2023/03/29 01:03:49;;;;;;;9.53;4.37;;;-2.20;99.90;;;;;;4954202;29;20657;-75
2023/03/29 01:06:18;;;;;;;8.93;4.50;;;-2.30;99.90;;;;;;4953644;28;20985;-72
2023/03/29 01:08:54;;;;;;;8.30;4.37;;;-2.20;99.90;;;;;;4955117;29;20670;-73
2023/03/29 01:11:29;;;;;;;8.70;4.20;;;-2.30;99.90;;;;;;4938200;29;20203;-74
2023/03/29 01:14:17;;;;;;;10.33;4.73;;;-2.30;99.90;;;;;;4937751;29;20577;-76
2023/03/29 01:16:45;;;;;;;8.83;4.40;;;-2.30;99.90;;;;;;4937004;29;20239;-75
2023/03/29 01:19:17;;;;;;;10.27;4.73;;;-2.20;99.90;;;;;;4937288;29;20224;-74
2023/03/29 01:22:12;;;;;;;8.77;4.50;;;-2.30;99.90;;;;;;4939281;29;20221;-74
2023/03/29 01:25:10;;;;;;;10.13;4.00;;;-2.30;99.90;;;;;;4849986;29;20305;-73
2023/03/29 01:27:59;;;;;;;9.13;4.27;;;-2.30;99.90;;;;;;4860050;29;20199;-75
2023/03/29 01:30:40;;;;;;;9.67;4.50;;;-2.30;99.90;;;;;;4856903;29;20330;-74
2023/03/29 01:33:31;;;;;;;9.07;4.27;;;-2.20;99.90;;;;;;4828050;29;20211;-72
2023/03/29 01:36:06;;;;;;;9.60;4.27;;;-2.20;99.90;;;;;;4808514;29;20221;-71
2023/03/29 01:38:44;;;;;;;10.17;4.60;;;-2.20;99.90;;;;;;4841567;29;20290;-76
2023/03/29 01:41:11;;;;;;;9.03;3.90;;;-2.20;99.90;;;;;;4832198;29;20210;-74
2023/03/29 01:44:01;;;;;;;9.17;4.57;;;-2.30;99.90;;;;;;4823982;29;20204;-73
2023/03/29 01:46:44;;;;;;;10.70;4.53;;;-2.30;99.90;;;;;;4834382;29;21033;-74
2023/03/29 01:49:13;;;;;;;11.17;4.40;;;-2.40;99.90;;;;;;4841896;29;20206;-73
2023/03/29 01:51:52;;;;;;;13.00;4.43;;;-2.40;99.90;;;;;;4842326;29;20582;-74
2023/03/29 01:54:25;;;;;;;9.77;4.40;;;-2.30;99.90;;;;;;4841314;29;20208;-75
2023/03/29 01:56:52;;;;;;;11.17;4.57;;;-2.30;99.90;;;;;;4841536;29;20236;-73
2023/03/29 01:59:25;;;;;;;10.83;4.40;;;-2.30;99.90;;;;;;4841256;29;20567;-72
2023/03/29 02:01:56;;;;;;;10.73;4.20;;;-2.40;99.90;;;;;;4900543;29;20218;-71
2023/03/29 02:04:33;;;;;;;8.67;4.17;;;-2.40;99.90;;;;;;4917491;29;20203;-72
2023/03/29 02:07:02;;;;;;;9.30;4.10;;;-2.40;99.90;;;;;;4917043;29;20196;-74
2023/03/29 02:09:31;;;;;;;7.80;3.90;;;-2.30;99.90;;;;;;4925164;29;20197;-74
2023/03/29 02:12:00;;;;;;;9.13;3.97;;;-2.40;99.90;;;;;;4953273;29;20192;-73
2023/03/29 02:14:29;;;;;;;9.97;4.37;;;-2.40;99.90;;;;;;4935357;29;20229;-71
2023/03/29 02:17:07;;;;;;;10.70;4.20;;;-2.40;99.90;;;;;;4953102;28;20723;-70
2023/03/29 02:19:34;;;;;;;9.47;3.93;;;-2.50;99.90;;;;;;4935780;29;20234;-71
2023/03/29 02:22:08;;;;;;;7.93;3.73;;;-2.50;99.90;;;;;;4936116;29;20671;-73
2023/03/29 02:24:37;;;;;;;9.07;4.20;;;-2.40;99.90;;;;;;4944074;29;20233;-73
2023/03/29 02:27:04;;;;;;;9.87;4.13;;;-2.50;99.90;;;;;;4917329;29;20677;-71
2023/03/29 02:29:31;;;;;;;7.77;4.20;;;-2.40;99.90;;;;;;4934071;29;20552;-74
2023/03/29 02:32:04;;;;;;;11.60;4.40;;;-2.40;99.90;;;;;;4916942;29;20210;-77
2023/03/29 02:34:49;;;;;;;8.37;4.33;;;-2.40;99.90;;;;;;4934176;29;20225;-74
2023/03/29 02:37:18;;;;;;;10.60;4.20;;;-2.50;99.90;;;;;;4933685;29;20187;-73
2023/03/29 02:39:48;;;;;;;11.23;4.33;;;-2.50;99.90;;;;;;4934186;29;20302;-75
2023/03/29 02:42:19;;;;;;;8.93;4.30;;;-2.50;99.90;;;;;;4954757;29;20274;-72
2023/03/29 02:44:49;;;;;;;11.40;5.03;;;-2.50;99.90;;;;;;4956089;29;20201;-71
2023/03/29 02:47:21;;;;;;;9.23;4.40;;;-2.50;99.90;;;;;;4929245;29;20250;-73
2023/03/29 02:49:51;;;;;;;10.10;4.30;;;-2.50;99.90;;;;;;4937303;29;20225;-74
2023/03/29 02:52:24;;;;;;;9.57;4.30;;;-2.50;99.90;;;;;;4936947;29;20243;-74
2023/03/29 02:54:54;;;;;;;9.77;4.47;;;-2.50;99.90;;;;;;4920371;29;20206;-74
2023/03/29 02:57:25;;;;;;;10.77;4.67;;;-2.50;99.90;;;;;;4919593;29;20185;-73
2023/03/29 02:59:54;;;;;;;10.30;4.67;;;-2.50;99.90;;;;;;4937236;29;20250;-76
2023/03/29 03:02:21;;;;;;;10.60;4.40;;;-2.50;99.90;;;;;;4919685;29;20199;-74
2023/03/29 03:04:48;;;;;;;10.73;4.37;;;-2.50;99.90;;;;;;4947887;29;20191;-74
2023/03/29 03:07:16;;;;;;;9.77;4.50;;;-2.50;99.90;;;;;;4948722;29;20306;-75
2023/03/29 03:09:43;;;;;;;11.23;4.80;;;-2.60;99.90;;;;;;4919668;29;20202;-73
2023/03/29 03:12:10;;;;;;;12.93;5.00;;;-2.60;99.90;;;;;;4919897;29;20201;-74
2023/03/29 03:14:37;;;;;;;11.27;5.20;;;-2.60;99.90;;;;;;4936298;29;20244;-75
2023/03/29 03:17:04;;;;;;;16.73;6.23;;;-2.50;99.90;;;;;;4919473;29;20238;-78
2023/03/29 03:19:30;;;;;;;13.87;6.03;;;-2.50;99.90;;;;;;4919443;29;20297;-75
2023/03/29 03:21:58;;;;;;;12.77;6.40;;;-2.60;99.90;;;;;;4936832;29;20195;-75
2023/03/29 03:24:26;;;;;;;10.33;5.60;;;-2.60;99.90;;;;;;4919531;29;20210;-73
2023/03/29 03:26:54;;;;;;;12.70;5.37;;;-2.70;99.90;;;;;;4919235;29;20689;-75
2023/03/29 03:29:21;;;;;;;12.20;5.47;;;-2.60;99.90;;;;;;4936874;29;20633;-74
2023/03/29 03:31:47;;;;;;;9.87;4.90;;;-2.60;99.90;;;;;;4903440;29;20205;-73
2023/03/29 03:34:18;;;;;;;11.60;5.27;;;-2.60;99.90;;;;;;4919480;29;20203;-77
2023/03/29 03:36:46;;;;;;;11.47;4.80;;;-2.60;99.90;;;;;;4920045;29;20206;-73
2023/03/29 03:39:13;;;;;;;9.70;4.87;;;-2.60;99.90;;;;;;4937454;29;20225;-76
2023/03/29 03:41:40;;;;;;;10.40;4.67;;;-2.60;99.90;;;;;;4920429;29;20199;-75
2023/03/29 03:44:06;;;;;;;9.50;4.77;;;-2.70;99.90;;;;;;4937385;29;20208;-74
2023/03/29 03:46:33;;;;;;;10.70;5.40;;;-2.70;99.90;;;;;;4940801;29;20176;-75
2023/03/29 03:49:00;;;;;;;10.97;5.23;;;-2.80;99.90;;;;;;4937376;29;20193;-73
2023/03/29 03:51:27;;;;;;;12.97;5.10;;;-2.80;99.90;;;;;;4951667;29;20262;-75
2023/03/29 03:53:54;;;;;;;11.07;5.43;;;-2.80;99.90;;;;;;4927774;29;20205;-73
2023/03/29 03:56:22;;;;;;;9.80;4.90;;;-2.80;99.90;;;;;;4930922;29;20202;-75
2023/03/29 03:58:50;;;;;;;13.10;5.23;;;-2.80;99.90;;;;;;4937833;29;20223;-70
2023/03/29 04:01:18;;;;;;;11.23;5.50;;;-2.80;99.90;;;;;;4938090;29;20222;-71
2023/03/29 04:03:45;;;;;;;11.63;4.97;;;-2.90;99.90;;;;;;4937908;29;20191;-72
2023/03/29 04:06:12;;;;;;;11.37;5.43;;;-2.90;99.90;;;;;;4937951;29;20210;-73
2023/03/29 04:08:41;;;;;;;12.67;5.20;;;-2.80;99.90;;;;;;4955124;29;20200;-72
2023/03/29 04:11:08;;;;;;;9.70;4.83;;;-2.90;99.90;;;;;;4954917;29;20191;-73
2023/03/29 04:13:36;;;;;;;13.20;4.93;;;-2.80;99.90;;;;;;4955040;29;20199;-70
2023/03/29 04:16:03;;;;;;;13.57;5.40;;;-2.80;99.90;;;;;;4954511;29;20230;-73
2023/03/29 04:18:31;;;;;;;11.40;5.07;;;-2.90;99.90;;;;;;4955056;29;20287;-72
2023/03/29 04:20:58;;;;;;;11.30;5.30;;;-2.90;99.90;;;;;;4929788;29;20219;-72
2023/03/29 04:23:25;;;;;;;12.17;5.07;;;-2.90;99.90;;;;;;4948847;29;20240;-71
2023/03/29 04:25:55;;;;;;;14.20;5.67;;;-3.00;99.90;;;;;;4937410;29;20897;-73
2023/03/29 04:28:24;;;;;;;11.23;5.27;;;-3.00;99.90;;;;;;4937339;29;20231;-72
2023/03/29 04:30:51;;;;;;;10.87;5.53;;;-2.90;99.90;;;;;;4937375;29;20205;-72
2023/03/29 04:33:18;;;;;;;12.13;5.60;;;-2.90;99.90;;;;;;4937340;29;20202;-73
2023/03/29 04:35:46;;;;;;;9.97;4.67;;;-2.80;99.90;;;;;;4954740;29;20206;-73
2023/03/29 04:38:13;;;;;;;13.83;5.40;;;-2.80;99.90;;;;;;4954615;29;20208;-73
2023/03/29 04:40:40;;;;;;;12.00;4.77;;;-2.70;99.90;;;;;;4937625;29;20237;-74
2023/03/29 04:43:07;;;;;;;13.03;5.00;;;-2.70;99.90;;;;;;4937287;29;20191;-72
2023/03/29 04:45:35;;;;;;;13.37;5.67;;;-2.70;99.90;;;;;;4919817;29;20214;-75
2023/03/29 04:48:02;;;;;;;11.40;5.30;;;-2.70;99.90;;;;;;4917948;29;20291;-74
2023/03/29 04:50:29;;;;;;;11.13;5.37;;;-2.70;99.90;;;;;;4917797;29;20648;-75
2023/03/29 04:52:59;;;;;;;11.17;5.33;;;-2.70;99.90;;;;;;4935315;29;20274;-73
2023/03/29 04:55:27;;;;;;;9.43;5.13;;;-2.60;99.90;;;;;;4932205;29;20661;-74
2023/03/29 04:57:54;;;;;;;11.37;5.20;;;-2.60;99.90;;;;;;4925350;29;20203;-70
2023/03/29 05:00:25;;;;;;;14.70;5.37;;;-2.50;99.90;;;;;;4917704;29;20310;-76
2023/03/29 05:02:53;;;;;;;14.83;6.03;;;-2.40;99.90;;;;;;4934965;28;20236;-74
2023/03/29 05:05:20;;;;;;;14.73;5.40;;;-2.50;99.90;;;;;;4954002;29;20229;-71
2023/03/29 05:07:47;;;;;;;14.03;5.33;;;-2.40;99.90;;;;;;4936782;29;20203;-72
2023/03/29 05:10:15;;;;;;;17.93;5.67;;;-2.30;99.90;;;;;;4936878;29;20203;-72
2023/03/29 05:12:42;;;;;;;13.57;5.67;;;-2.30;99.90;;;;;;4936581;29;20561;-71
2023/03/29 05:15:09;;;;;;;14.93;5.97;;;-2.20;99.90;;;;;;4936646;28;20681;-72
2023/03/29 05:17:36;;;;;;;11.60;5.47;;;-2.20;99.90;;;;;;4953557;29;20205;-71
2023/03/29 05:20:08;;;;;;;12.73;5.80;;;-2.20;99.90;;;;;;4953988;29;20589;-70
2023/03/29 05:22:35;;;;;;;13.27;6.03;;;-2.10;99.90;;;;;;4936702;29;20218;-74
2023/03/29 05:25:02;;;;;;;14.03;6.77;;;-2.10;99.90;;;;;;4936302;29;20296;-72
2023/03/29 05:27:29;;;;;;;13.20;6.37;;;-2.00;99.90;;;;;;4936366;29;20695;-71
2023/03/29 05:29:56;;;;;;;18.60;7.67;;;-2.00;99.90;;;;;;4953502;29;20200;-70
2023/03/29 05:32:23;;;;;;;12.07;7.00;;;-1.90;99.90;;;;;;4936574;29;20211;-72
2023/03/29 05:34:50;;;;;;;19.43;7.33;;;-2.00;99.90;;;;;;4929560;29;20228;-70
2023/03/29 05:37:17;;;;;;;16.87;6.90;;;-1.90;99.90;;;;;;4917206;29;20212;-72
2023/03/29 05:39:44;;;;;;;17.83;7.57;;;-2.00;99.90;;;;;;4917129;29;20717;-73
2023/03/29 05:42:12;;;;;;;14.13;7.30;;;-2.00;99.90;;;;;;4934490;29;20201;-72
2023/03/29 05:44:39;;;;;;;19.00;7.00;;;-2.00;99.90;;;;;;4917097;29;20507;-73
2023/03/29 05:47:06;;;;;;;16.03;7.20;;;-1.90;99.90;;;;;;4934052;29;20192;-71
2023/03/29 05:49:33;;;;;;;15.83;7.57;;;-1.90;99.90;;;;;;4934731;29;20270;-73
2023/03/29 05:52:01;;;;;;;13.47;6.87;;;-1.90;99.90;;;;;;4901502;29;20491;-78
2023/03/29 05:54:28;;;;;;;17.50;7.30;;;-1.90;99.90;;;;;;4925231;29;20219;-77
2023/03/29 05:56:55;;;;;;;12.77;7.13;;;-1.70;99.90;;;;;;4924501;29;20201;-75
2023/03/29 05:59:23;;;;;;;15.20;6.90;;;-1.60;99.90;;;;;;4917104;29;20278;-75
2023/03/29 06:01:50;;;;;;;20.27;6.60;;;-1.60;99.90;;;;;;4925579;29;20213;-75
2023/03/29 06:04:18;;;;;;;15.40;6.47;;;-1.50;99.90;;;;;;4936214;29;20200;-73
2023/03/29 06:06:45;;;;;;;15.20;6.10;;;-1.40;99.90;;;;;;4935869;29;20215;-72
2023/03/29 06:09:12;;;;;;;12.13;5.97;;;-1.30;99.90;;;;;;4935912;29;20193;-73
2023/03/29 06:11:39;;;;;;;12.13;6.37;;;-1.30;99.90;;;;;;4936221;29;20212;-76
2023/03/29 06:14:06;;;;;;;13.90;6.13;;;-1.20;99.90;;;;;;4933964;29;20262;-77
2023/03/29 06:16:35;;;;;;;10.70;5.23;;;-1.10;99.90;;;;;;4937306;28;20239;-75
2023/03/29 06:19:02;;;;;;;10.63;5.40;;;-0.90;99.90;;;;;;4956907;28;20212;-78
2023/03/29 06:21:30;;;;;;;12.77;5.70;;;-0.80;99.90;;;;;;4959015;28;20615;-76
2023/03/29 06:23:57;;;;;;;16.23;5.60;;;-0.70;99.90;;;;;;4959063;28;20645;-73
2023/03/29 06:26:26;;;;;;;13.10;5.47;;;-0.60;99.90;;;;;;4958664;28;20233;-75
2023/03/29 06:28:53;;;;;;;10.47;5.70;;;-0.40;99.90;;;;;;4959317;28;20203;-80
2023/03/29 06:31:20;;;;;;;11.57;5.40;;;-0.40;99.90;;;;;;4959209;28;20205;-76
2023/03/29 06:33:48;;;;;;;11.60;5.47;;;-0.30;99.90;;;;;;4959040;28;20215;-79
2023/03/29 06:36:15;;;;;;;9.50;5.20;;;-0.20;99.90;;;;;;4958913;28;20215;-80
2023/03/29 06:38:44;;;;;;;13.67;5.13;;;-0.10;99.90;;;;;;4958826;28;20194;-74
2023/03/29 06:41:11;;;;;;;10.33;4.47;;;-0.20;99.90;;;;;;4958196;28;20248;-75
2023/03/29 06:43:38;;;;;;;11.93;5.27;;;-0.20;99.90;;;;;;4976363;28;20189;-75
2023/03/29 06:46:10;;;;;;;12.53;4.70;;;-0.20;99.90;;;;;;4975911;28;20287;-73
2023/03/29 06:48:39;;;;;;;13.17;4.97;;;-0.10;99.90;;;;;;4958829;28;20197;-74
2023/03/29 06:51:07;;;;;;;12.93;5.50;;;0.00;99.90;;;;;;4975930;28;20252;-76
2023/03/29 06:53:35;;;;;;;10.77;4.80;;;0.20;99.90;;;;;;4975754;28;20618;-76
2023/03/29 06:56:07;;;;;;;12.90;5.20;;;0.30;99.90;;;;;;4958063;28;20633;-72
2023/03/29 06:58:35;;;;;;;12.53;5.43;;;0.30;99.90;;;;;;4957783;28;20189;-73
2023/03/29 07:01:02;;;;;;;9.87;4.73;;;0.30;99.90;;;;;;4939024;29;20222;-73
2023/03/29 07:03:33;;;;;;;11.10;4.70;;;0.30;99.90;;;;;;4923068;29;20196;-76
2023/03/29 07:06:08;;;;;;;9.60;4.93;;;0.40;99.90;;;;;;4930162;29;20289;-77
2023/03/29 07:08:42;;;;;;;9.83;4.70;;;0.40;99.90;;;;;;4919807;29;20227;-74
2023/03/29 07:11:11;;;;;;;8.70;4.60;;;0.60;99.90;;;;;;4919240;29;20289;-75
2023/03/29 07:13:41;;;;;;;10.60;4.83;;;0.60;99.90;;;;;;4921747;29;20218;-73
2023/03/29 07:16:12;;;;;;;11.67;4.60;;;0.70;99.90;;;;;;4954700;28;20286;-72
2023/03/29 07:18:41;;;;;;;12.23;4.43;;;0.70;99.90;;;;;;4932980;28;20212;-73
2023/03/29 07:21:10;;;;;;;9.33;4.43;;;0.70;99.90;;;;;;4922251;29;20263;-74
2023/03/29 07:23:38;;;;;;;8.43;4.60;;;1.00;99.90;;;;;;4919858;29;20212;-73
2023/03/29 07:26:09;;;;;;;9.60;4.53;;;1.00;99.90;;;;;;4919414;29;20265;-75
2023/03/29 07:28:36;;;;;;;9.77;4.73;;;1.10;99.90;;;;;;4937182;29;20190;-73
2023/03/29 07:31:09;;;;;;;7.50;4.63;;;1.10;99.90;;;;;;4919525;29;20246;-72
2023/03/29 07:33:37;;;;;;;10.03;4.70;;;1.10;99.90;;;;;;4936688;29;20199;-75
2023/03/29 07:36:06;;;;;;;10.77;5.07;;;1.20;99.90;;;;;;4919292;29;20218;-75
2023/03/29 07:38:33;;;;;;;12.30;5.40;;;1.40;99.90;;;;;;4919505;29;20203;-72
2023/03/29 07:41:05;;;;;;;9.83;5.17;;;1.30;99.90;;;;;;4919183;29;20222;-73
2023/03/29 07:43:33;;;;;;;9.57;4.80;;;1.20;99.90;;;;;;4936608;29;20214;-73
2023/03/29 07:46:01;;;;;;;10.47;5.53;;;1.10;99.90;;;;;;4927486;29;20198;-71
2023/03/29 07:48:29;;;;;;;8.60;4.73;;;1.30;99.90;;;;;;4954880;29;20641;-75
2023/03/29 07:50:56;;;;;;;8.87;5.03;;;1.40;99.90;;;;;;4935905;29;20241;-75
2023/03/29 07:53:23;;;;;;;12.60;6.17;;;1.40;99.90;;;;;;4919430;29;20209;-75
2023/03/29 07:55:51;;;;;;;11.50;5.43;;;1.60;99.90;;;;;;4940053;29;20238;-73
2023/03/29 07:58:18;;;;;;;14.00;6.00;;;1.70;99.90;;;;;;4935892;29;20728;-74
2023/03/29 08:00:47;;;;;;;11.20;5.13;;;1.90;99.90;;;;;;4950436;29;20583;-73
2023/03/29 08:03:15;;;;;;;9.20;4.73;;;2.10;99.90;;;;;;4935898;29;20216;-74
2023/03/29 08:05:42;;;;;;;13.00;4.83;;;2.00;99.90;;;;;;4943400;28;20248;-74
2023/03/29 08:08:09;;;;;;;10.83;4.50;;;2.10;99.90;;;;;;4920852;29;20206;-74
2023/03/29 08:10:38;;;;;;;10.53;4.50;;;2.10;99.90;;;;;;4935873;29;20230;-73
2023/03/29 08:13:07;;;;;;;9.73;4.20;;;2.30;99.90;;;;;;4933846;29;20195;-73
2023/03/29 08:15:36;;;;;;;10.33;4.40;;;2.40;99.90;;;;;;4920378;29;20564;-73
2023/03/29 08:18:04;;;;;;;9.63;3.87;;;2.40;99.90;;;;;;4935726;29;20204;-72
2023/03/29 08:20:31;;;;;;;10.17;4.30;;;2.50;99.90;;;;;;4935555;29;20223;-75
2023/03/29 08:22:58;;;;;;;10.10;3.70;;;2.60;99.90;;;;;;4918173;29;20205;-72
2023/03/29 08:25:25;;;;;;;8.87;3.57;;;2.50;99.90;;;;;;4918042;29;20206;-72
2023/03/29 08:27:52;;;;;;;9.00;4.10;;;2.60;99.90;;;;;;4917965;29;20188;-71
2023/03/29 08:30:20;;;;;;;7.10;3.97;;;2.80;99.90;;;;;;4935458;29;20708;-74
2023/03/29 08:32:47;;;;;;;8.93;3.80;;;3.40;99.90;;;;;;4918201;29;20203;-72
2023/03/29 08:35:18;;;;;;;10.43;3.70;;;4.00;99.90;;;;;;4935513;29;20280;-69
2023/03/29 08:37:45;;;;;;;7.30;3.50;;;4.70;99.90;;;;;;4935425;29;20207;-72
2023/03/29 08:40:20;;;;;;;7.37;3.53;;;5.30;99.90;;;;;;4902506;29;20234;-70
2023/03/29 08:43:17;;;;;;;6.10;3.47;;;5.20;99.90;;;;;;4938537;29;20216;-70
2023/03/29 08:46:08;;;;;;;8.47;3.90;;;5.80;99.90;;;;;;4909956;29;20224;-72
2023/03/29 08:48:43;;;;;;;4.30;2.93;;;6.10;99.90;;;;;;4941620;29;20192;-70
2023/03/29 08:51:33;;;;;;;6.00;3.10;;;6.20;99.90;;;;;;4923858;29;20199;-69
2023/03/29 08:54:09;;;;;;;5.00;2.70;;;6.10;99.90;;;;;;4940780;29;20236;-69
2023/03/29 08:56:39;;;;;;;7.17;3.63;;;6.20;99.90;;;;;;4942891;29;20202;-71
2023/03/29 08:59:19;;;;;;;5.87;2.80;;;6.70;99.90;;;;;;4948497;29;20211;-72
2023/03/29 09:01:49;;;;;;;4.97;2.90;;;6.90;99.30;;;;;;4953938;29;20582;-72
2023/03/29 09:04:27;;;;;;;6.93;3.00;;;6.80;96.10;;;;;;4954022;29;20347;-73
2023/03/29 09:06:55;;;;;;;4.90;2.50;;;7.30;94.70;;;;;;4936966;29;20256;-73
2023/03/29 09:09:26;;;;;;;5.83;2.40;;;7.50;89.90;;;;;;4936576;29;20205;-76
2023/03/29 09:12:23;;;;;;;3.87;2.07;;;7.60;84.60;;;;;;4936637;29;20205;-76
2023/03/29 09:15:14;;;;;;;5.43;2.20;;;7.30;73.20;;;;;;4936501;29;20316;-75
2023/03/29 09:17:59;;;;;;;5.07;2.10;;;7.20;73.20;;;;;;4936634;29;20209;-76
2023/03/29 09:20:46;;;;;;;4.63;2.30;;;7.30;72.10;;;;;;4936477;29;20273;-74
2023/03/29 09:23:21;;;;;;;4.40;2.50;;;7.60;70.50;;;;;;4918268;29;20203;-74
2023/03/29 09:26:05;;;;;;;5.20;2.33;;;7.50;70.00;;;;;;4933031;29;20194;-75
2023/03/29 09:28:39;;;;;;;6.20;2.00;;;7.50;67.60;;;;;;4921167;29;20191;-74
2023/03/29 09:31:19;;;;;;;4.07;1.97;;;7.50;60.70;;;;;;4939887;29;20281;-75
2023/03/29 09:33:55;;;;;;;4.67;2.07;;;7.70;60.90;;;;;;4943304;29;20723;-74
2023/03/29 09:36:37;;;;;;;3.80;1.80;;;8.00;60.60;;;;;;4925498;29;20221;-73
2023/03/29 09:39:05;;;;;;;4.30;2.13;;;8.10;56.60;;;;;;4917392;29;20238;-73
2023/03/29 09:41:40;;;;;;;5.83;1.93;;;7.90;56.50;;;;;;4928800;29;20221;-74
2023/03/29 09:44:11;;;;;;;3.23;1.70;;;8.00;56.00;;;;;;4938078;29;20190;-72
2023/03/29 09:47:20;;;;;;;3.43;1.70;;;7.90;54.10;;;;;;4939960;29;20205;-72
2023/03/29 09:49:50;;;;;;;3.63;2.03;;;8.40;54.80;;;;;;4920606;29;20199;-72
2023/03/29 09:52:19;;;;;;;4.77;2.00;;;8.70;54.30;;;;;;4942150;29;20570;-74
2023/03/29 09:54:47;;;;;;;3.37;2.00;;;9.20;53.70;;;;;;4943487;29;20272;-74
2023/03/29 09:57:18;;;;;;;4.20;1.50;;;8.90;51.10;;;;;;4924599;29;20669;-73
2023/03/29 09:59:49;;;;;;;3.37;1.50;;;9.40;50.60;;;;;;4940052;29;20669;-74
2023/03/29 10:02:19;;;;;;;2.33;1.40;;;9.10;46.30;;;;;;4941237;29;20229;-72
2023/03/29 10:04:54;;;;;;;5.23;1.77;;;8.40;46.30;;;;;;4942195;29;20281;-73
2023/03/29 10:07:21;;;;;;;2.73;1.50;;;8.70;48.10;;;;;;4942640;29;20546;-74
2023/03/29 10:09:51;;;;;;;5.03;1.60;;;9.20;46.30;;;;;;4924723;29;20233;-73
2023/03/29 10:12:19;;;;;;;3.57;1.63;;;8.90;45.70;;;;;;4925868;29;20565;-74
2023/03/29 10:14:51;;;;;;;4.23;1.70;;;9.00;46.60;;;;;;4940282;29;20233;-72
2023/03/29 10:17:24;;;;;;;3.37;1.50;;;9.20;45.30;;;;;;4936946;29;20226;-74
2023/03/29 10:19:55;;;;;;;2.07;1.43;;;9.50;44.10;;;;;;4933700;29;20194;-74
2023/03/29 10:22:26;;;;;;;2.60;1.17;;;9.40;42.80;;;;;;4933614;29;20311;-75
2023/03/29 10:24:56;;;;;;;4.50;1.77;;;9.40;41.70;;;;;;4916756;29;20234;-72
2023/03/29 10:27:26;;;;;;;4.57;1.67;;;9.20;44.10;;;;;;4916661;29;20211;-74
2023/03/29 10:29:55;;;;;;;3.77;1.80;;;9.30;46.40;;;;;;4916945;29;20223;-74
2023/03/29 10:32:27;;;;;;;3.27;1.90;;;9.70;47.30;;;;;;4916538;29;20205;-74
2023/03/29 10:34:57;;;;;;;5.00;2.13;;;10.10;47.70;;;;;;4917004;29;20287;-76
2023/03/29 10:37:27;;;;;;;4.07;2.10;;;10.10;46.70;;;;;;4916724;29;20199;-76
2023/03/29 10:39:54;;;;;;;5.33;2.00;;;9.80;46.00;;;;;;4933989;29;20210;-74
2023/03/29 10:42:24;;;;;;;4.30;1.90;;;10.50;47.30;;;;;;4917097;29;20309;-73
2023/03/29 10:44:54;;;;;;;4.60;2.03;;;10.90;47.50;;;;;;4916494;29;20203;-73
2023/03/29 10:47:22;;;;;;;5.53;2.30;;;10.50;47.10;;;;;;4933645;29;20717;-73
2023/03/29 10:49:55;;;;;;;6.40;2.20;;;10.40;49.50;;;;;;4933806;29;20199;-71
2023/03/29 10:52:23;;;;;;;4.67;2.30;;;10.40;49.50;;;;;;4933931;29;20646;-74
2023/03/29 10:54:53;;;;;;;4.73;2.50;;;11.00;49.70;;;;;;4933780;29;20617;-71
2023/03/29 10:57:36;;;;;;;6.60;2.50;;;12.00;49.40;;;;;;4916508;29;20191;-73
2023/03/29 11:00:33;;;;;;;3.80;2.27;;;12.90;48.40;;;;;;4917101;29;20198;-73
2023/03/29 11:03:22;;;;;;;6.60;2.50;;;11.90;48.10;;;;;;4923419;29;20645;-71
2023/03/29 11:06:21;;;;;;;4.47;2.23;;;11.20;49.60;;;;;;4935282;29;20554;-72
2023/03/29 11:08:51;;;;;;;3.93;2.00;;;11.50;50.30;;;;;;4935668;29;20211;-72
2023/03/29 11:11:39;;;;;;;4.63;2.20;;;12.50;49.70;;;;;;4924917;29;20607;-72
2023/03/29 11:14:18;;;;;;;4.73;2.00;;;12.50;48.40;;;;;;4937224;29;20608;-72
2023/03/29 11:16:51;;;;;;;3.40;2.00;;;12.90;48.20;;;;;;4919427;29;20245;-79
2023/03/29 11:19:52;;;;;;;6.93;2.40;;;13.30;47.90;;;;;;4941117;29;20203;-74
2023/03/29 11:22:22;;;;;;;6.93;2.37;;;14.10;47.20;;;;;;4938552;29;20234;-70
2023/03/29 11:25:03;;;;;;;4.73;2.17;;;14.10;45.40;;;;;;4955867;29;20190;-71
2023/03/29 11:27:45;;;;;;;3.00;2.00;;;13.60;47.90;;;;;;4938765;29;20305;-74
2023/03/29 11:30:43;;;;;;;5.30;2.20;;;13.10;50.10;;;;;;4939018;29;20214;-73
2023/03/29 11:33:27;;;;;;;4.37;2.47;;;13.40;54.00;;;;;;4955593;29;20678;-76
2023/03/29 11:36:04;;;;;;;4.40;2.70;;;14.40;51.70;;;;;;4937845;29;20202;-78
2023/03/29 11:38:38;;;;;;;3.73;2.20;;;15.10;49.10;;;;;;4919269;29;20292;-78
2023/03/29 11:41:17;;;;;;;5.27;2.30;;;15.00;47.20;;;;;;4919389;29;20206;-79
2023/03/29 11:43:55;;;;;;;4.13;2.50;;;15.00;46.70;;;;;;4918908;29;20199;-75
2023/03/29 11:46:26;;;;;;;3.97;2.30;;;15.30;47.10;;;;;;4918694;29;20206;-77
2023/03/29 11:49:05;;;;;;;4.03;2.60;;;14.80;48.10;;;;;;4934829;29;20199;-73
2023/03/29 11:51:45;;;;;;;3.97;2.27;;;15.70;45.50;;;;;;4936476;29;20217;-79
2023/03/29 11:54:28;;;;;;;5.27;2.20;;;15.10;44.30;;;;;;4936004;29;20637;-72
2023/03/29 11:57:04;;;;;;;3.10;2.00;;;15.00;46.40;;;;;;4952977;28;20264;-76
2023/03/29 11:59:34;;;;;;;3.87;2.30;;;15.00;44.40;;;;;;4957173;28;20663;-78
2023/03/29 12:02:13;;;;;;;6.07;2.50;;;15.00;45.90;;;;;;4957056;28;20222;-75
2023/03/29 12:04:48;;;;;;;3.20;2.07;;;16.10;45.50;;;;;;4956881;28;20201;-77
2023/03/29 12:07:57;;;;;;;2.90;1.90;;;15.80;41.60;;;;;;4956734;28;20284;-77
2023/03/29 12:10:32;;;;;;;4.50;2.20;;;16.30;40.80;;;;;;4943426;29;20333;-77
2023/03/29 12:13:08;;;;;;;3.43;2.10;;;16.70;41.90;;;;;;4937298;29;20230;-71
2023/03/29 12:15:44;;;;;;;3.93;2.00;;;16.70;42.00;;;;;;4954539;28;20587;-70
2023/03/29 12:18:26;;;;;;;3.40;2.27;;;16.20;41.60;;;;;;4937145;29;20194;-70
2023/03/29 12:21:01;;;;;;;5.40;2.37;;;15.80;41.80;;;;;;4937545;29;20198;-70
2023/03/29 12:23:32;;;;;;;5.37;2.03;;;16.50;39.20;;;;;;4937715;29;20223;-70
2023/03/29 12:26:23;;;;;;;3.93;2.30;;;16.90;40.50;;;;;;4937325;29;20202;-70
2023/03/29 12:28:56;;;;;;;4.13;2.40;;;17.50;39.10;;;;;;4929385;29;20197;-72
2023/03/29 12:32:01;;;;;;;3.40;2.10;;;17.80;39.20;;;;;;4937589;29;20194;-72
2023/03/29 12:34:54;;;;;;;3.83;2.40;;;17.80;39.00;;;;;;4954806;29;20206;-73
2023/03/29 12:38:13;;;;;;;3.47;2.07;;;18.60;36.70;;;;;;4937119;29;20202;-74
2023/03/29 12:40:45;;;;;;;2.77;2.00;;;17.00;34.50;;;;;;4827404;29;20205;-71
2023/03/29 12:43:27;;;;;;;3.73;2.20;;;16.70;37.90;;;;;;4842416;29;20317;-71
2023/03/29 12:46:06;;;;;;;4.20;2.50;;;17.60;36.70;;;;;;4857512;29;20300;-72
2023/03/29 12:48:37;;;;;;;4.73;2.43;;;18.10;36.50;;;;;;4857845;29;20212;-73
2023/03/29 12:51:12;;;;;;;4.27;2.70;;;18.20;35.80;;;;;;4857452;29;20233;-70
2023/03/29 12:53:48;;;;;;;4.60;2.73;;;18.20;38.10;;;;;;4858069;29;20299;-72
2023/03/29 12:56:22;;;;;;;4.17;2.70;;;18.10;36.30;;;;;;4857731;29;20252;-75
2023/03/29 12:59:06;;;;;;;5.53;2.77;;;18.70;38.20;;;;;;4842115;29;20205;-74
2023/03/29 13:01:40;;;;;;;5.83;2.40;;;18.60;35.40;;;;;;4842441;29;20328;-74
2023/03/29 13:04:20;;;;;;;6.40;2.43;;;19.30;34.70;;;;;;4857430;29;20210;-74
2023/03/29 13:06:47;;;;;;;4.30;2.40;;;19.70;36.00;;;;;;4857291;29;20205;-75
2023/03/29 13:09:28;;;;;;;3.00;2.00;;;19.70;33.70;;;;;;4857599;29;20198;-73
2023/03/29 13:12:10;;;;;;;3.40;1.87;;;19.70;33.40;;;;;;4932081;29;20217;-73
2023/03/29 13:14:43;;;;;;;3.57;2.00;;;19.40;32.70;;;;;;4936281;29;20226;-74